Terminal Aerodrome Forecast
Issued by NWS Caribou, ME

Home | Current Version | Previous Version | Text Only | Print | Product List | Glossary On
Versions: 1 2 3 4 5 6 7 8 9 10 11 12 13 14
000
FTUS41 KCAR 210520
TAFBGR
TAF
KBGR 210520Z 2106/2206 30008KT P6SM BKN060 OVC080
     FM211400 32010G20KT P6SM BKN050
     FM212300 32007KT P6SM SCT050=

USA.gov is the U.S. government's official web portal to all federal, state and local government web resources and services.